Time;durP1;ratioP1;P1;durP2;ratioP2;P2;SDS_P1;SDS_P2;PMS_P1;PMS_P2;Temp;Humidity;BMP_temperature;BMP_pressure;BME280_temperature;BME280_humidity;BME280_pressure;Samples;Min_cycle;Max_cycle;Signal;HPM_P1;HPM_P2
2021/09/10 00:01:37;;;;;;;8.85;7.72;;;18.20;1.00;;;;;;5077450;28;20048;-65
2021/09/10 00:04:06;;;;;;;12.45;7.53;;;18.10;2.00;;;;;;5062696;28;20052;-65
2021/09/10 00:06:34;;;;;;;11.45;7.70;;;18.10;1.80;;;;;;5053106;28;20128;-64
2021/09/10 00:09:02;;;;;;;10.07;8.45;;;18.20;2.10;;;;;;5077046;28;20557;-64
2021/09/10 00:11:35;;;;;;;9.73;8.02;;;18.10;2.70;;;;;;5078787;28;20523;-64
2021/09/10 00:14:03;;;;;;;8.20;7.32;;;18.00;3.70;;;;;;5076635;28;20055;-64
2021/09/10 00:16:31;;;;;;;8.45;7.55;;;17.90;4.30;;;;;;5050040;28;20062;-64
2021/09/10 00:18:59;;;;;;;13.48;8.13;;;17.90;4.70;;;;;;5048566;28;20070;-64
2021/09/10 00:21:27;;;;;;;12.32;9.10;;;17.90;4.80;;;;;;5077589;28;21609;-64
2021/09/10 00:23:55;;;;;;;9.60;8.52;;;17.90;5.10;;;;;;5075172;28;20500;-65
2021/09/10 00:26:23;;;;;;;11.93;8.07;;;17.90;5.10;;;;;;5037411;28;20047;-65
2021/09/10 00:28:52;;;;;;;11.35;8.38;;;17.90;5.10;;;;;;5074630;28;20499;-65
2021/09/10 00:31:20;;;;;;;11.13;8.07;;;18.00;5.00;;;;;;5079491;28;20044;-64
2021/09/10 00:33:48;;;;;;;9.80;7.90;;;18.00;4.70;;;;;;5071136;28;20044;-65
2021/09/10 00:36:16;;;;;;;9.07;7.80;;;17.90;4.90;;;;;;5051416;28;20047;-64
2021/09/10 00:38:44;;;;;;;9.20;7.88;;;17.90;5.30;;;;;;5077590;28;20073;-64
2021/09/10 00:41:12;;;;;;;9.20;7.72;;;17.90;5.20;;;;;;5081266;28;20051;-65
2021/09/10 00:43:43;;;;;;;10.00;8.27;;;17.90;5.20;;;;;;5074879;28;20127;-66
2021/09/10 00:46:12;;;;;;;9.07;8.15;;;17.80;6.00;;;;;;5054987;28;20210;-65
2021/09/10 00:48:44;;;;;;;11.48;8.55;;;17.70;7.30;;;;;;5081623;28;20090;-65
2021/09/10 00:51:12;;;;;;;9.50;8.50;;;17.70;8.10;;;;;;5075941;28;20048;-65
2021/09/10 00:53:45;;;;;;;11.13;8.43;;;17.70;8.30;;;;;;5075563;28;20048;-65
2021/09/10 00:56:17;;;;;;;9.32;8.27;;;17.60;8.70;;;;;;5038797;28;20040;-66
2021/09/10 00:58:45;;;;;;;11.95;8.88;;;17.70;7.50;;;;;;5075929;28;20044;-65
2021/09/10 01:01:15;;;;;;;11.73;8.80;;;17.80;5.70;;;;;;5061360;28;20511;-65
2021/09/10 01:03:43;;;;;;;14.50;9.07;;;18.00;5.30;;;;;;5054781;28;20040;-64
2021/09/10 01:06:12;;;;;;;11.77;9.23;;;18.10;3.40;;;;;;5053572;28;20120;-65
2021/09/10 01:08:42;;;;;;;14.40;8.82;;;18.10;3.60;;;;;;5075125;28;20494;-64
2021/09/10 01:11:11;;;;;;;10.18;9.10;;;18.20;3.30;;;;;;5079353;28;20080;-64
2021/09/10 01:13:39;;;;;;;12.13;9.88;;;18.20;3.30;;;;;;5077040;28;20047;-64
2021/09/10 01:16:08;;;;;;;14.52;9.80;;;18.20;3.30;;;;;;5056718;28;20044;-64
2021/09/10 01:18:37;;;;;;;12.68;9.43;;;18.20;3.50;;;;;;5073225;28;20055;-64
2021/09/10 01:21:05;;;;;;;11.68;9.75;;;18.20;3.20;;;;;;5077487;28;20052;-65
2021/09/10 01:23:33;;;;;;;13.60;10.00;;;18.20;3.30;;;;;;5073448;28;20044;-65
2021/09/10 01:26:03;;;;;;;12.80;9.98;;;18.30;3.70;;;;;;5051757;28;20044;-64
2021/09/10 01:28:32;;;;;;;13.15;9.27;;;18.20;3.70;;;;;;5041075;28;20043;-64
2021/09/10 01:31:00;;;;;;;13.73;10.18;;;18.20;3.70;;;;;;5053495;28;20046;-64
2021/09/10 01:33:29;;;;;;;12.98;9.77;;;18.20;3.60;;;;;;5078618;28;20052;-64
2021/09/10 01:35:57;;;;;;;11.77;9.38;;;18.20;3.90;;;;;;5055148;28;20057;-64
2021/09/10 01:38:27;;;;;;;15.88;10.48;;;18.20;4.30;;;;;;5072087;28;20044;-64
2021/09/10 01:40:55;;;;;;;12.40;9.50;;;18.20;4.40;;;;;;5076729;28;20052;-64
2021/09/10 01:43:24;;;;;;;11.95;10.05;;;18.20;4.30;;;;;;5074186;28;20590;-64
2021/09/10 01:45:52;;;;;;;12.68;9.82;;;18.20;4.20;;;;;;5059239;28;20040;-64
2021/09/10 01:48:20;;;;;;;13.35;9.98;;;18.20;4.20;;;;;;5076460;28;20048;-64
2021/09/10 01:50:49;;;;;;;15.95;10.57;;;18.20;4.50;;;;;;5060295;28;20048;-64
2021/09/10 01:53:17;;;;;;;14.07;9.27;;;18.10;4.80;;;;;;5080011;28;20047;-65
2021/09/10 01:55:45;;;;;;;14.85;9.95;;;17.80;6.30;;;;;;5054699;28;20052;-65
2021/09/10 01:58:13;;;;;;;10.43;9.32;;;17.50;8.20;;;;;;5071583;28;20079;-65
2021/09/10 02:00:43;;;;;;;11.27;9.10;;;17.40;9.70;;;;;;5077450;28;20055;-65
2021/09/10 02:03:11;;;;;;;11.07;9.55;;;17.20;11.40;;;;;;5075057;28;20491;-64
2021/09/10 02:05:40;;;;;;;11.75;9.25;;;17.10;12.70;;;;;;5054574;28;20052;-65
2021/09/10 02:08:08;;;;;;;11.10;9.45;;;17.00;13.60;;;;;;5071044;28;20051;-64
2021/09/10 02:10:36;;;;;;;13.07;9.80;;;16.80;14.90;;;;;;5059830;28;20089;-64
2021/09/10 02:13:05;;;;;;;12.68;9.73;;;16.80;16.10;;;;;;5074686;28;20549;-64
2021/09/10 02:15:33;;;;;;;12.25;9.88;;;16.80;16.70;;;;;;5055888;28;20116;-64
2021/09/10 02:18:02;;;;;;;13.07;9.63;;;16.70;16.90;;;;;;5072235;28;20535;-64
2021/09/10 02:20:33;;;;;;;17.42;9.98;;;16.80;17.20;;;;;;5070770;28;20503;-64
2021/09/10 02:23:01;;;;;;;11.27;10.02;;;16.70;17.90;;;;;;5076356;28;20082;-64
2021/09/10 02:25:29;;;;;;;13.02;10.05;;;16.80;18.10;;;;;;5053840;28;20136;-64
2021/09/10 02:27:57;;;;;;;13.15;10.07;;;16.80;18.20;;;;;;5058303;28;20044;-65
2021/09/10 02:30:25;;;;;;;11.73;9.50;;;16.80;18.10;;;;;;5071523;28;20048;-65
2021/09/10 02:32:53;;;;;;;12.10;9.88;;;16.80;18.50;;;;;;5061707;28;20487;-65
2021/09/10 02:35:23;;;;;;;11.75;9.45;;;16.70;18.70;;;;;;5051920;28;20052;-65
2021/09/10 02:37:51;;;;;;;13.77;9.55;;;16.70;18.70;;;;;;5055593;28;20048;-66
2021/09/10 02:40:19;;;;;;;17.25;10.85;;;16.60;19.50;;;;;;5076750;28;20060;-65
2021/09/10 02:42:48;;;;;;;11.52;10.27;;;16.60;19.50;;;;;;5075225;28;21500;-65
2021/09/10 02:45:16;;;;;;;12.52;10.07;;;16.60;19.80;;;;;;5054684;28;20044;-66
2021/09/10 02:47:44;;;;;;;11.60;9.70;;;16.50;19.90;;;;;;5076274;28;20144;-65
2021/09/10 02:50:12;;;;;;;11.63;9.93;;;16.50;20.60;;;;;;5082590;28;20132;-65
2021/09/10 02:52:41;;;;;;;12.90;9.77;;;16.40;21.20;;;;;;5082056;28;20483;-64
2021/09/10 02:55:11;;;;;;;13.25;10.63;;;16.60;21.00;;;;;;5053283;28;20137;-64
2021/09/10 02:57:39;;;;;;;13.68;11.07;;;16.60;20.70;;;;;;5077003;28;20055;-65
2021/09/10 03:00:07;;;;;;;12.23;10.00;;;16.60;20.70;;;;;;5080223;28;20180;-64
2021/09/10 03:02:35;;;;;;;15.25;10.13;;;16.70;20.60;;;;;;5076423;28;20660;-65
2021/09/10 03:05:05;;;;;;;12.52;10.40;;;16.60;20.90;;;;;;5058394;28;20056;-65
2021/09/10 03:07:33;;;;;;;12.82;10.30;;;16.60;21.20;;;;;;5077076;28;22261;-64
2021/09/10 03:10:03;;;;;;;17.33;10.30;;;16.60;21.30;;;;;;5078787;28;20067;-64
2021/09/10 03:12:31;;;;;;;12.00;10.38;;;16.60;21.60;;;;;;5064330;28;20139;-64
2021/09/10 03:14:59;;;;;;;11.50;9.95;;;16.60;21.50;;;;;;5042956;28;20937;-65
2021/09/10 03:17:29;;;;;;;12.02;10.15;;;16.70;21.10;;;;;;5075952;28;20047;-65
2021/09/10 03:19:56;;;;;;;15.10;10.13;;;16.70;20.70;;;;;;5079925;28;20188;-65
2021/09/10 03:22:25;;;;;;;13.73;10.13;;;16.80;20.40;;;;;;5075390;28;20094;-65
2021/09/10 03:24:53;;;;;;;11.02;9.93;;;16.80;20.60;;;;;;5056789;28;20568;-65
2021/09/10 03:27:22;;;;;;;10.77;9.48;;;16.90;19.80;;;;;;5076420;28;20055;-65
2021/09/10 03:29:50;;;;;;;11.75;10.30;;;16.90;19.80;;;;;;5079161;28;20041;-65
2021/09/10 03:32:19;;;;;;;15.13;10.38;;;17.00;19.80;;;;;;5080781;28;20040;-65
2021/09/10 03:34:47;;;;;;;13.95;9.93;;;16.90;19.80;;;;;;5063623;28;20523;-64
2021/09/10 03:37:15;;;;;;;11.73;9.88;;;16.90;19.90;;;;;;5067566;28;20045;-64
2021/09/10 03:39:44;;;;;;;12.25;10.55;;;16.90;19.80;;;;;;5076818;28;20402;-65
2021/09/10 03:42:12;;;;;;;14.82;11.60;;;17.00;19.80;;;;;;5081268;28;20302;-66
2021/09/10 03:44:41;;;;;;;16.15;10.48;;;17.00;19.80;;;;;;5077493;28;20075;-63
2021/09/10 03:47:09;;;;;;;15.57;11.32;;;17.00;19.80;;;;;;5072827;28;20515;-64
2021/09/10 03:49:37;;;;;;;14.35;11.63;;;17.20;18.80;;;;;;5076031;28;20059;-64
2021/09/10 03:52:06;;;;;;;13.90;11.18;;;17.20;18.00;;;;;;5073387;28;20068;-65
2021/09/10 03:54:34;;;;;;;15.60;11.65;;;17.30;17.50;;;;;;5065981;28;20114;-63
2021/09/10 03:57:02;;;;;;;15.35;12.02;;;17.40;16.50;;;;;;5066701;28;20109;-64
2021/09/10 03:59:30;;;;;;;15.98;11.82;;;17.50;15.00;;;;;;5080676;28;20081;-64
2021/09/10 04:02:00;;;;;;;14.75;11.55;;;17.50;15.30;;;;;;5077894;28;20044;-64
2021/09/10 04:04:28;;;;;;;13.43;10.50;;;17.50;15.60;;;;;;5073959;28;20598;-65
2021/09/10 04:06:56;;;;;;;14.45;11.88;;;17.40;16.00;;;;;;5065204;28;20075;-65
2021/09/10 04:09:24;;;;;;;15.23;12.02;;;17.40;16.50;;;;;;5076528;28;20060;-64
2021/09/10 04:11:52;;;;;;;14.70;12.25;;;17.40;16.20;;;;;;5078097;28;20044;-65
2021/09/10 04:14:20;;;;;;;14.68;11.45;;;17.50;15.80;;;;;;5075516;28;20075;-65
2021/09/10 04:16:48;;;;;;;17.13;11.63;;;17.50;15.10;;;;;;5060420;28;20051;-64
2021/09/10 04:19:17;;;;;;;14.50;11.90;;;17.40;15.40;;;;;;5077646;28;20048;-64
2021/09/10 04:21:45;;;;;;;15.02;11.80;;;17.40;15.90;;;;;;5067325;28;20131;-64
2021/09/10 04:24:17;;;;;;;12.57;10.70;;;17.30;16.40;;;;;;5076311;28;20140;-64
2021/09/10 04:26:45;;;;;;;14.18;11.05;;;17.20;16.60;;;;;;5058198;28;20043;-64
2021/09/10 04:29:13;;;;;;;14.20;10.63;;;17.20;16.60;;;;;;5057948;28;20044;-64
2021/09/10 04:31:41;;;;;;;12.85;11.02;;;17.30;16.40;;;;;;5078244;28;20750;-64
2021/09/10 04:34:09;;;;;;;16.55;12.15;;;17.30;16.40;;;;;;5079181;28;20052;-64
2021/09/10 04:36:38;;;;;;;13.77;11.32;;;17.20;16.40;;;;;;5057962;28;20063;-64
2021/09/10 04:39:06;;;;;;;14.65;11.20;;;17.30;16.80;;;;;;5074198;28;20076;-65
2021/09/10 04:41:35;;;;;;;15.57;10.73;;;17.20;17.00;;;;;;5078853;28;20070;-64
2021/09/10 04:44:03;;;;;;;17.08;11.13;;;17.20;17.00;;;;;;5057506;28;20036;-64
2021/09/10 04:46:31;;;;;;;12.75;10.95;;;17.10;17.80;;;;;;5059283;28;20089;-63
2021/09/10 04:48:59;;;;;;;11.73;10.20;;;17.00;17.60;;;;;;5070956;28;20105;-63
2021/09/10 04:51:29;;;;;;;13.65;10.93;;;17.10;18.00;;;;;;5077303;28;20134;-64
2021/09/10 04:54:00;;;;;;;15.65;11.10;;;17.00;18.10;;;;;;5070818;28;20046;-64
2021/09/10 04:56:28;;;;;;;16.20;11.00;;;17.00;18.20;;;;;;5062449;28;20086;-64
2021/09/10 04:58:56;;;;;;;14.70;10.68;;;17.00;17.70;;;;;;5077938;28;20484;-63
2021/09/10 05:01:24;;;;;;;12.80;10.80;;;17.10;18.00;;;;;;5057405;28;20056;-63
2021/09/10 05:03:53;;;;;;;14.75;10.60;;;17.10;17.60;;;;;;5077112;28;20128;-65
2021/09/10 05:06:21;;;;;;;14.98;10.80;;;17.20;17.20;;;;;;5060361;28;20040;-63
2021/09/10 05:08:49;;;;;;;15.48;10.90;;;17.20;17.00;;;;;;5076430;28;20056;-64
2021/09/10 05:11:18;;;;;;;14.02;10.70;;;17.40;16.50;;;;;;5076253;28;20044;-64
2021/09/10 05:13:46;;;;;;;12.50;10.48;;;17.70;14.50;;;;;;5076325;28;20513;-63
2021/09/10 05:16:14;;;;;;;15.55;10.95;;;18.10;12.60;;;;;;5059369;28;20132;-64
2021/09/10 05:18:42;;;;;;;13.57;10.18;;;17.90;11.70;;;;;;5065064;28;20133;-65
2021/09/10 05:21:24;;;;;;;14.18;10.52;;;18.30;9.70;;;;;;5056138;28;20506;-67
2021/09/10 05:23:52;;;;;;;14.38;10.60;;;18.60;7.90;;;;;;5054006;28;20082;-65
2021/09/10 05:26:22;;;;;;;14.40;10.55;;;18.80;6.00;;;;;;5039056;28;20101;-64
2021/09/10 05:28:50;;;;;;;14.82;11.32;;;19.00;5.80;;;;;;5060009;28;20072;-64
2021/09/10 05:31:18;;;;;;;14.85;11.00;;;18.50;7.50;;;;;;5052602;28;20041;-64
2021/09/10 05:33:46;;;;;;;16.40;11.70;;;18.30;9.00;;;;;;5051063;28;20044;-64
2021/09/10 05:36:14;;;;;;;15.75;11.30;;;18.20;9.70;;;;;;5038027;28;20503;-64
2021/09/10 05:38:42;;;;;;;14.93;10.32;;;18.10;10.10;;;;;;5048744;28;20480;-64
2021/09/10 05:41:10;;;;;;;15.80;11.02;;;18.10;10.20;;;;;;5061359;28;20052;-64
2021/09/10 05:43:39;;;;;;;14.63;10.43;;;18.20;10.30;;;;;;5075205;28;20044;-65
2021/09/10 05:46:07;;;;;;;18.10;11.35;;;18.20;10.20;;;;;;5058330;28;20306;-63
2021/09/10 05:48:36;;;;;;;16.25;11.73;;;18.20;10.10;;;;;;5076248;28;20043;-63
2021/09/10 05:51:04;;;;;;;14.70;11.30;;;18.40;9.80;;;;;;5072147;28;20040;-65
2021/09/10 05:53:32;;;;;;;17.77;12.57;;;18.40;9.80;;;;;;5071399;28;20055;-65
2021/09/10 05:56:01;;;;;;;17.63;12.45;;;18.40;9.80;;;;;;5043645;28;20469;-64
2021/09/10 05:58:30;;;;;;;19.25;11.52;;;18.40;9.10;;;;;;5054945;28;20101;-65
2021/09/10 06:01:00;;;;;;;16.20;11.65;;;18.30;9.70;;;;;;5073793;28;20101;-65
2021/09/10 06:03:28;;;;;;;16.25;11.88;;;18.30;9.80;;;;;;5077308;28;20097;-65
2021/09/10 06:05:57;;;;;;;15.85;11.55;;;18.40;9.50;;;;;;5055992;28;20055;-64
2021/09/10 06:08:25;;;;;;;15.90;11.38;;;18.40;9.80;;;;;;5069050;28;20043;-65
2021/09/10 06:10:53;;;;;;;14.75;11.38;;;18.70;8.20;;;;;;5078077;28;20048;-65
2021/09/10 06:13:21;;;;;;;15.27;10.45;;;18.60;8.30;;;;;;5073437;28;20167;-64
2021/09/10 06:15:49;;;;;;;15.23;10.52;;;18.80;7.30;;;;;;5047896;28;20044;-65
2021/09/10 06:18:19;;;;;;;14.13;10.32;;;18.70;7.00;;;;;;5074236;28;20483;-64
2021/09/10 06:20:47;;;;;;;11.50;9.57;;;19.00;6.50;;;;;;5076621;28;20516;-64
2021/09/10 06:23:15;;;;;;;13.43;9.70;;;19.00;6.50;;;;;;5080383;28;20071;-64
2021/09/10 06:25:43;;;;;;;13.77;9.13;;;19.10;5.00;;;;;;5066065;28;20558;-64
2021/09/10 06:28:11;;;;;;;13.02;9.60;;;19.30;4.60;;;;;;5078790;28;20500;-65
2021/09/10 06:30:39;;;;;;;11.68;9.75;;;19.30;5.10;;;;;;5077027;28;20048;-64
2021/09/10 06:33:07;;;;;;;13.18;10.32;;;19.40;4.60;;;;;;5077378;28;20060;-64
2021/09/10 06:35:37;;;;;;;15.50;9.75;;;19.30;4.70;;;;;;5063360;28;20056;-65
2021/09/10 06:38:05;;;;;;;13.02;9.98;;;19.40;4.70;;;;;;5070983;28;20048;-64
2021/09/10 06:40:33;;;;;;;13.30;9.95;;;19.20;5.10;;;;;;5079136;28;20228;-64
2021/09/10 06:43:01;;;;;;;15.02;11.27;;;19.20;4.90;;;;;;5077493;28;20079;-64
2021/09/10 06:45:29;;;;;;;13.75;10.60;;;19.00;5.30;;;;;;5068456;28;20495;-63
2021/09/10 06:47:57;;;;;;;11.60;9.85;;;19.00;6.00;;;;;;5071945;28;20056;-64
2021/09/10 06:50:25;;;;;;;11.75;10.48;;;18.80;7.10;;;;;;5078059;28;20442;-65
2021/09/10 06:52:54;;;;;;;13.93;10.88;;;19.10;6.50;;;;;;5079932;28;20075;-63
2021/09/10 06:55:23;;;;;;;13.98;10.43;;;19.20;6.40;;;;;;5069546;28;20057;-65
2021/09/10 06:57:51;;;;;;;13.80;10.38;;;19.60;5.40;;;;;;5027676;28;20055;-64
2021/09/10 07:00:19;;;;;;;16.02;10.98;;;19.70;3.60;;;;;;5077889;28;20685;-65
2021/09/10 07:02:47;;;;;;;15.50;11.18;;;19.70;3.60;;;;;;5078373;28;20052;-64
2021/09/10 07:05:15;;;;;;;13.23;10.68;;;19.70;3.70;;;;;;5067202;28;20132;-64
2021/09/10 07:07:43;;;;;;;16.17;12.05;;;19.90;3.20;;;;;;5067713;28;20048;-65
2021/09/10 07:10:13;;;;;;;16.75;11.30;;;19.80;1.60;;;;;;5074100;28;20051;-65
2021/09/10 07:12:42;;;;;;;26.27;19.02;;;20.00;2.30;;;;;;5055021;28;20083;-65
2021/09/10 07:15:11;;;;;;;17.13;10.65;;;20.10;1.30;;;;;;5070069;28;20044;-64
2021/09/10 07:17:39;;;;;;;13.75;11.05;;;20.20;1.00;;;;;;5066488;28;20056;-64
2021/09/10 07:20:08;;;;;;;17.88;11.00;;;20.50;1.00;;;;;;5078765;28;20789;-64
2021/09/10 07:22:36;;;;;;;16.63;11.63;;;20.70;1.00;;;;;;5060958;28;20048;-64
2021/09/10 07:25:05;;;;;;;12.82;11.25;;;20.80;1.00;;;;;;5050023;28;20121;-63
2021/09/10 07:27:34;;;;;;;14.52;10.52;;;20.70;1.00;;;;;;5050549;28;20051;-64
2021/09/10 07:30:03;;;;;;;15.55;10.77;;;20.90;1.00;;;;;;5077348;28;20074;-64
2021/09/10 07:32:31;;;;;;;13.50;10.70;;;21.10;1.00;;;;;;5073222;28;20047;-64
2021/09/10 07:34:59;;;;;;;16.73;10.70;;;21.20;1.00;;;;;;5066700;28;20054;-65
2021/09/10 07:37:29;;;;;;;13.75;10.25;;;21.30;1.00;;;;;;5065564;28;20128;-63
2021/09/10 07:39:58;;;;;;;13.77;10.48;;;21.40;1.00;;;;;;5074504;28;20044;-63
2021/09/10 07:42:26;;;;;;;13.60;10.00;;;21.60;1.00;;;;;;5077097;28;20051;-64
2021/09/10 07:44:55;;;;;;;16.10;9.35;;;21.70;1.00;;;;;;5071916;28;20328;-64
2021/09/10 07:47:23;;;;;;;15.85;9.63;;;21.80;1.00;;;;;;5066705;28;20462;-64
2021/09/10 07:49:51;;;;;;;13.25;9.18;;;21.90;1.00;;;;;;5070998;28;20094;-64
2021/09/10 07:52:19;;;;;;;13.27;9.57;;;21.90;1.00;;;;;;5078066;28;20453;-64
2021/09/10 07:54:47;;;;;;;12.68;9.52;;;21.80;1.00;;;;;;5070156;28;20106;-64
2021/09/10 07:57:23;;;;;;;10.35;8.93;;;22.20;1.00;;;;;;5063088;28;20099;-64
2021/09/10 07:59:55;;;;;;;15.52;9.88;;;22.30;1.00;;;;;;5077275;28;20367;-64
2021/09/10 08:02:27;;;;;;;13.93;10.45;;;22.30;1.00;;;;;;5074566;28;20418;-63
2021/09/10 08:04:56;;;;;;;13.75;10.00;;;22.60;1.00;;;;;;5070409;28;20048;-63
2021/09/10 08:07:24;;;;;;;15.68;10.55;;;22.80;1.00;;;;;;5066096;28;21143;-63
2021/09/10 08:10:00;;;;;;;13.05;9.35;;;22.90;1.00;;;;;;5069303;28;20142;-64
2021/09/10 08:12:28;;;;;;;12.70;8.43;;;22.70;1.00;;;;;;5061843;28;20143;-63
2021/09/10 08:14:57;;;;;;;12.00;8.05;;;23.00;1.00;;;;;;5068297;28;20118;-66
2021/09/10 08:17:26;;;;;;;11.43;8.18;;;23.10;1.00;;;;;;5067970;28;20040;-63
2021/09/10 08:19:54;;;;;;;10.98;7.15;;;23.20;1.00;;;;;;5075364;28;20056;-63
2021/09/10 08:22:22;;;;;;;14.07;8.18;;;23.50;1.00;;;;;;5074889;28;20101;-64
2021/09/10 08:24:56;;;;;;;15.05;8.48;;;22.90;1.00;;;;;;5065281;28;20059;-65
2021/09/10 08:27:24;;;;;;;11.60;9.02;;;23.30;1.00;;;;;;5065466;28;20060;-65
2021/09/10 08:29:53;;;;;;;10.88;8.45;;;23.40;1.00;;;;;;5061142;28;20052;-65
2021/09/10 08:32:21;;;;;;;13.25;8.60;;;23.70;1.00;;;;;;5076665;28;20048;-63
2021/09/10 08:34:50;;;;;;;9.48;8.05;;;23.60;1.00;;;;;;5070205;28;20082;-63
2021/09/10 08:37:19;;;;;;;9.52;8.52;;;23.60;1.00;;;;;;5064884;28;20070;-66
2021/09/10 08:39:47;;;;;;;9.13;7.05;;;23.50;1.00;;;;;;5056382;28;20051;-64
2021/09/10 08:42:15;;;;;;;8.65;5.95;;;23.30;1.00;;;;;;5055288;28;20132;-64
2021/09/10 08:44:44;;;;;;;10.25;7.50;;;23.00;1.00;;;;;;5073264;28;21369;-64
2021/09/10 08:47:14;;;;;;;29.30;22.38;;;23.20;1.00;;;;;;5065844;28;21550;-64
2021/09/10 08:49:44;;;;;;;8.98;5.82;;;23.20;1.00;;;;;;5057786;28;20040;-64
2021/09/10 08:52:15;;;;;;;6.57;5.35;;;23.00;1.00;;;;;;5074628;28;20036;-64
2021/09/10 08:54:43;;;;;;;8.05;5.75;;;23.00;1.00;;;;;;5073398;28;21225;-64
2021/09/10 08:57:11;;;;;;;9.50;5.68;;;22.90;1.00;;;;;;5063836;28;20055;-64
2021/09/10 08:59:39;;;;;;;10.20;5.70;;;22.80;1.00;;;;;;5071226;28;20410;-63
2021/09/10 09:02:08;;;;;;;6.25;5.13;;;22.70;1.00;;;;;;5078036;28;20055;-64
2021/09/10 09:04:38;;;;;;;7.45;5.57;;;22.90;1.00;;;;;;5068117;28;20097;-64
2021/09/10 09:07:08;;;;;;;6.53;5.60;;;23.30;1.00;;;;;;5065423;28;20048;-64
2021/09/10 09:09:39;;;;;;;8.68;5.25;;;23.60;1.00;;;;;;5055223;28;20105;-65
2021/09/10 09:12:12;;;;;;;6.28;4.90;;;23.60;1.00;;;;;;5059245;28;20083;-64
2021/09/10 09:14:49;;;;;;;6.47;4.88;;;23.10;1.00;;;;;;5065209;28;20052;-64
2021/09/10 09:17:22;;;;;;;5.68;5.13;;;23.70;1.00;;;;;;5065475;28;20056;-64
2021/09/10 09:20:12;;;;;;;5.50;4.78;;;24.20;1.00;;;;;;5073531;28;20082;-62
2021/09/10 09:22:54;;;;;;;6.47;5.25;;;24.30;1.00;;;;;;5073877;28;20461;-64
2021/09/10 09:25:26;;;;;;;7.45;5.72;;;24.10;1.00;;;;;;5072559;28;20073;-64
2021/09/10 09:27:55;;;;;;;9.90;5.43;;;24.20;1.00;;;;;;5069191;28;20056;-64
2021/09/10 09:30:37;;;;;;;11.40;7.28;;;24.30;1.00;;;;;;5069886;28;20052;-65
2021/09/10 09:33:05;;;;;;;9.68;6.28;;;24.60;1.00;;;;;;5075622;28;20044;-64
2021/09/10 09:35:33;;;;;;;10.38;5.57;;;24.60;1.00;;;;;;5063467;28;20545;-64
2021/09/10 09:38:12;;;;;;;5.88;5.18;;;24.50;1.00;;;;;;5070248;28;20540;-64
2021/09/10 09:40:42;;;;;;;6.78;5.57;;;24.50;1.00;;;;;;5068883;28;20093;-65
2021/09/10 09:43:16;;;;;;;6.50;5.80;;;24.40;1.00;;;;;;5045195;28;20048;-65
2021/09/10 09:45:48;;;;;;;6.32;5.60;;;24.50;1.00;;;;;;5044373;28;20048;-64
2021/09/10 09:48:17;;;;;;;10.52;5.97;;;24.50;1.00;;;;;;5070858;28;20508;-64
2021/09/10 09:50:46;;;;;;;7.65;5.60;;;24.60;1.00;;;;;;5057572;28;20056;-65
2021/09/10 09:53:14;;;;;;;7.70;5.85;;;24.80;1.00;;;;;;5072436;28;20079;-64
2021/09/10 09:55:45;;;;;;;7.05;5.50;;;25.00;1.00;;;;;;5040683;28;20105;-67
2021/09/10 09:58:14;;;;;;;8.38;5.68;;;25.10;1.00;;;;;;5072582;28;20806;-64
2021/09/10 10:00:43;;;;;;;7.07;5.85;;;25.00;1.00;;;;;;5071371;28;20564;-65
2021/09/10 10:03:12;;;;;;;8.48;5.40;;;25.30;1.00;;;;;;5047410;28;20091;-63
2021/09/10 10:06:00;;;;;;;8.63;5.75;;;25.50;1.00;;;;;;5060068;28;20098;-64
2021/09/10 10:08:34;;;;;;;10.48;6.00;;;25.00;1.00;;;;;;5055242;28;20068;-64
2021/09/10 10:11:10;;;;;;;9.07;6.72;;;25.00;1.00;;;;;;5072333;28;20477;-65
2021/09/10 10:13:38;;;;;;;7.68;5.95;;;24.90;1.00;;;;;;5078498;28;20052;-64
2021/09/10 10:16:06;;;;;;;6.30;5.70;;;25.10;1.00;;;;;;5059210;28;20500;-65
2021/09/10 10:18:48;;;;;;;8.85;6.03;;;25.50;1.00;;;;;;5076011;28;20044;-63
2021/09/10 10:21:16;;;;;;;6.50;5.55;;;25.60;1.00;;;;;;5074478;28;20048;-64
2021/09/10 10:23:58;;;;;;;9.25;5.88;;;25.60;1.00;;;;;;5073487;28;20060;-65
2021/09/10 10:26:36;;;;;;;6.97;5.70;;;25.80;1.00;;;;;;5041669;28;20110;-66
2021/09/10 10:29:07;;;;;;;7.53;5.55;;;25.80;1.00;;;;;;5069661;28;20094;-65
2021/09/10 10:32:05;;;;;;;11.82;5.68;;;25.70;1.00;;;;;;5075492;28;20133;-64
2021/09/10 10:34:37;;;;;;;7.20;6.05;;;25.50;1.00;;;;;;5046499;28;20468;-64
2021/09/10 10:37:38;;;;;;;6.22;5.38;;;25.90;1.00;;;;;;5059722;28;20520;-65
2021/09/10 10:40:40;;;;;;;7.63;5.72;;;26.10;1.00;;;;;;5074051;28;20098;-64
2021/09/10 10:43:12;;;;;;;6.78;5.95;;;25.90;1.00;;;;;;5003167;28;20133;-62
2021/09/10 10:46:09;;;;;;;8.25;6.00;;;25.10;1.00;;;;;;5000529;28;20049;-62
2021/09/10 10:48:51;;;;;;;9.88;6.63;;;25.00;1.00;;;;;;5050132;28;20101;-64
2021/09/10 10:51:42;;;;;;;8.50;6.22;;;25.30;1.00;;;;;;5073667;28;20097;-64
2021/09/10 10:54:15;;;;;;;6.47;5.88;;;24.80;1.00;;;;;;5072279;28;20055;-64
2021/09/10 10:56:48;;;;;;;10.45;5.72;;;25.30;1.00;;;;;;5044726;28;20552;-64
2021/09/10 10:59:30;;;;;;;8.15;6.35;;;25.50;1.00;;;;;;5070717;28;20056;-65
2021/09/10 11:02:20;;;;;;;8.00;5.53;;;26.10;1.00;;;;;;5069988;28;20376;-64
2021/09/10 11:04:49;;;;;;;8.40;6.20;;;25.70;1.00;;;;;;5049629;28;20100;-64
2021/09/10 11:07:20;;;;;;;9.40;6.35;;;25.90;1.00;;;;;;5067552;28;20051;-63
2021/09/10 11:09:57;;;;;;;6.65;6.05;;;25.20;1.00;;;;;;5077644;28;20045;-64
2021/09/10 11:12:26;;;;;;;8.13;6.22;;;24.90;1.00;;;;;;5076778;28;20040;-64
2021/09/10 11:14:56;;;;;;;6.40;5.72;;;25.40;1.00;;;;;;5070688;28;20059;-64
2021/09/10 11:17:27;;;;;;;7.10;6.40;;;25.50;1.00;;;;;;5061665;28;20096;-64
2021/09/10 11:19:56;;;;;;;6.65;6.05;;;24.80;1.00;;;;;;5081680;28;20464;-64
2021/09/10 11:22:26;;;;;;;7.70;6.43;;;24.30;1.00;;;;;;5077820;28;20093;-63
2021/09/10 11:25:08;;;;;;;8.00;5.90;;;24.10;1.00;;;;;;5070549;28;20048;-64
2021/09/10 11:27:39;;;;;;;9.85;5.82;;;24.30;1.00;;;;;;5067704;28;20537;-64
2021/09/10 11:30:11;;;;;;;7.90;6.22;;;24.60;1.00;;;;;;5075313;28;20040;-64
2021/09/10 11:32:40;;;;;;;7.40;5.90;;;24.30;1.00;;;;;;5076546;28;20067;-63
2021/09/10 11:35:19;;;;;;;7.68;5.88;;;24.40;1.00;;;;;;5071032;28;20060;-64
2021/09/10 11:37:53;;;;;;;7.07;5.60;;;24.90;1.00;;;;;;5067126;28;20558;-63
2021/09/10 11:40:35;;;;;;;9.00;6.00;;;24.90;1.00;;;;;;5072606;28;20064;-64
2021/09/10 11:43:06;;;;;;;6.10;5.50;;;24.10;1.00;;;;;;5075961;28;20089;-64
2021/09/10 11:45:37;;;;;;;10.90;6.35;;;24.60;1.00;;;;;;5068739;28;20044;-64
2021/09/10 11:48:07;;;;;;;6.20;5.60;;;24.80;1.00;;;;;;5066442;28;20051;-63
2021/09/10 11:50:53;;;;;;;7.53;5.45;;;24.30;1.00;;;;;;5072133;28;20125;-64
2021/09/10 11:53:24;;;;;;;9.05;6.05;;;24.60;1.00;;;;;;5076193;28;20044;-63
2021/09/10 11:55:54;;;;;;;7.47;6.28;;;24.10;1.00;;;;;;5068615;28;20040;-64
2021/09/10 11:58:41;;;;;;;6.47;5.78;;;24.80;1.00;;;;;;5066020;28;20073;-64
2021/09/10 12:01:23;;;;;;;8.38;6.20;;;25.00;1.00;;;;;;5075996;28;20044;-64
2021/09/10 12:03:55;;;;;;;7.35;5.88;;;24.60;1.00;;;;;;5076988;28;20052;-63
2021/09/10 12:06:28;;;;;;;7.32;5.82;;;24.40;1.00;;;;;;5056615;28;20478;-63
2021/09/10 12:09:13;;;;;;;8.65;5.55;;;24.40;1.00;;;;;;5056396;28;20052;-63
2021/09/10 12:12:16;;;;;;;6.30;5.53;;;24.70;1.00;;;;;;5078512;28;20044;-63
2021/09/10 12:14:47;;;;;;;6.85;5.57;;;24.90;1.00;;;;;;5060747;28;20068;-64
2021/09/10 12:17:30;;;;;;;7.03;6.32;;;25.00;1.00;;;;;;5067384;28;20098;-64
2021/09/10 12:20:05;;;;;;;7.65;5.70;;;25.00;1.00;;;;;;5072404;28;20415;-64
2021/09/10 12:22:43;;;;;;;8.43;6.35;;;25.10;1.00;;;;;;5072955;28;20048;-64
2021/09/10 12:25:26;;;;;;;6.82;5.20;;;25.00;1.00;;;;;;5066592;28;20055;-64
2021/09/10 12:27:58;;;;;;;7.72;5.75;;;25.00;1.00;;;;;;5030003;28;20047;-64
2021/09/10 12:30:28;;;;;;;6.13;5.53;;;24.70;1.00;;;;;;5070600;28;20056;-64
2021/09/10 12:32:58;;;;;;;9.80;6.43;;;25.40;1.00;;;;;;5058136;28;20095;-65
2021/09/10 12:35:27;;;;;;;7.25;5.85;;;24.90;1.00;;;;;;5073337;28;20121;-64
2021/09/10 12:37:58;;;;;;;7.60;5.60;;;25.30;1.00;;;;;;5067762;28;20114;-64
2021/09/10 12:40:26;;;;;;;6.20;5.57;;;24.90;1.00;;;;;;5070789;28;20093;-63
2021/09/10 12:42:54;;;;;;;6.95;6.25;;;24.60;1.00;;;;;;5074288;28;20133;-64
2021/09/10 12:45:23;;;;;;;7.80;5.78;;;24.30;1.00;;;;;;5068162;28;20666;-64
2021/09/10 12:47:51;;;;;;;7.93;5.88;;;24.70;1.00;;;;;;5065257;28;20059;-64
2021/09/10 12:50:21;;;;;;;6.88;6.03;;;24.90;1.00;;;;;;5072369;28;20068;-63
2021/09/10 12:52:49;;;;;;;8.10;5.82;;;24.90;1.00;;;;;;5056502;28;20515;-64
2021/09/10 12:55:17;;;;;;;12.60;5.20;;;25.50;1.00;;;;;;5071454;28;20506;-64
2021/09/10 12:57:45;;;;;;;7.22;5.82;;;25.40;1.00;;;;;;5060907;28;20357;-64
2021/09/10 13:00:14;;;;;;;8.40;6.07;;;25.50;1.00;;;;;;5072962;28;20074;-65